sensor_id;sensor_type;location;lat;lon;timestamp;P1;durP1;ratioP1;P2;durP2;ratioP2
80193;SDS011;69515;42.072;21.504;2024-02-04T00:00:18;13.20;;;6.85;;
80193;SDS011;69515;42.072;21.504;2024-02-04T00:05:10;12.20;;;6.85;;
80193;SDS011;69515;42.072;21.504;2024-02-04T00:07:36;15.32;;;8.07;;
80193;SDS011;69515;42.072;21.504;2024-02-04T00:10:03;20.85;;;8.93;;
80193;SDS011;69515;42.072;21.504;2024-02-04T00:14:55;58.33;;;24.77;;
80193;SDS011;69515;42.072;21.504;2024-02-04T00:19:47;16.65;;;7.68;;
80193;SDS011;69515;42.072;21.504;2024-02-04T00:22:13;13.32;;;7.43;;
80193;SDS011;69515;42.072;21.504;2024-02-04T00:24:43;14.52;;;7.38;;
80193;SDS011;69515;42.072;21.504;2024-02-04T00:27:10;12.68;;;7.07;;
80193;SDS011;69515;42.072;21.504;2024-02-04T00:29:36;22.90;;;11.30;;
80193;SDS011;69515;42.072;21.504;2024-02-04T00:32:02;57.17;;;22.92;;
80193;SDS011;69515;42.072;21.504;2024-02-04T00:34:28;20.05;;;7.90;;
80193;SDS011;69515;42.072;21.504;2024-02-04T00:36:54;25.05;;;12.80;;
80193;SDS011;69515;42.072;21.504;2024-02-04T00:39:21;15.40;;;6.85;;
80193;SDS011;69515;42.072;21.504;2024-02-04T00:41:47;14.30;;;7.13;;
80193;SDS011;69515;42.072;21.504;2024-02-04T00:44:13;13.27;;;7.78;;
80193;SDS011;69515;42.072;21.504;2024-02-04T00:46:39;16.92;;;7.45;;
80193;SDS011;69515;42.072;21.504;2024-02-04T00:49:06;30.38;;;13.23;;
80193;SDS011;69515;42.072;21.504;2024-02-04T00:51:32;17.20;;;8.80;;
80193;SDS011;69515;42.072;21.504;2024-02-04T00:53:58;14.50;;;8.25;;
80193;SDS011;69515;42.072;21.504;2024-02-04T00:56:24;16.92;;;8.15;;
80193;SDS011;69515;42.072;21.504;2024-02-04T00:58:50;15.52;;;7.30;;
80193;SDS011;69515;42.072;21.504;2024-02-04T01:01:17;15.05;;;6.80;;
80193;SDS011;69515;42.072;21.504;2024-02-04T01:03:44;13.35;;;6.63;;
80193;SDS011;69515;42.072;21.504;2024-02-04T01:06:11;16.45;;;7.85;;
80193;SDS011;69515;42.072;21.504;2024-02-04T01:08:37;12.98;;;6.80;;
80193;SDS011;69515;42.072;21.504;2024-02-04T01:13:29;10.80;;;4.75;;
80193;SDS011;69515;42.072;21.504;2024-02-04T01:15:55;13.23;;;5.28;;
80193;SDS011;69515;42.072;21.504;2024-02-04T01:18:22;11.10;;;5.15;;
80193;SDS011;69515;42.072;21.504;2024-02-04T01:20:48;13.02;;;7.32;;
80193;SDS011;69515;42.072;21.504;2024-02-04T01:23:14;10.02;;;4.75;;
80193;SDS011;69515;42.072;21.504;2024-02-04T01:25:43;9.52;;;4.93;;
80193;SDS011;69515;42.072;21.504;2024-02-04T01:28:10;8.98;;;4.70;;
80193;SDS011;69515;42.072;21.504;2024-02-04T01:30:36;7.93;;;4.13;;
80193;SDS011;69515;42.072;21.504;2024-02-04T01:33:02;8.25;;;4.32;;
80193;SDS011;69515;42.072;21.504;2024-02-04T01:35:29;8.35;;;4.15;;
80193;SDS011;69515;42.072;21.504;2024-02-04T01:37:55;10.02;;;4.85;;
80193;SDS011;69515;42.072;21.504;2024-02-04T01:42:47;9.95;;;4.35;;
80193;SDS011;69515;42.072;21.504;2024-02-04T01:45:13;9.90;;;4.72;;
80193;SDS011;69515;42.072;21.504;2024-02-04T01:50:06;8.65;;;4.65;;
80193;SDS011;69515;42.072;21.504;2024-02-04T01:52:33;10.30;;;4.65;;
80193;SDS011;69515;42.072;21.504;2024-02-04T01:55:00;8.82;;;4.60;;
80193;SDS011;69515;42.072;21.504;2024-02-04T01:57:27;7.85;;;4.10;;
80193;SDS011;69515;42.072;21.504;2024-02-04T01:59:53;6.65;;;3.85;;
80193;SDS011;69515;42.072;21.504;2024-02-04T02:02:22;8.35;;;4.32;;
80193;SDS011;69515;42.072;21.504;2024-02-04T02:04:48;10.68;;;5.40;;
80193;SDS011;69515;42.072;21.504;2024-02-04T02:07:15;8.43;;;4.75;;
80193;SDS011;69515;42.072;21.504;2024-02-04T02:09:43;6.53;;;3.55;;
80193;SDS011;69515;42.072;21.504;2024-02-04T02:12:09;11.80;;;3.88;;
80193;SDS011;69515;42.072;21.504;2024-02-04T02:14:38;6.78;;;3.80;;
80193;SDS011;69515;42.072;21.504;2024-02-04T02:17:06;8.32;;;4.15;;
80193;SDS011;69515;42.072;21.504;2024-02-04T02:19:44;7.43;;;4.00;;
80193;SDS011;69515;42.072;21.504;2024-02-04T02:22:18;7.45;;;3.90;;
80193;SDS011;69515;42.072;21.504;2024-02-04T02:24:49;7.60;;;3.63;;
80193;SDS011;69515;42.072;21.504;2024-02-04T02:27:17;6.72;;;3.13;;
80193;SDS011;69515;42.072;21.504;2024-02-04T02:29:43;8.52;;;4.25;;
80193;SDS011;69515;42.072;21.504;2024-02-04T02:32:09;7.88;;;3.20;;
80193;SDS011;69515;42.072;21.504;2024-02-04T02:34:35;8.73;;;3.90;;
80193;SDS011;69515;42.072;21.504;2024-02-04T02:41:55;6.82;;;3.53;;
80193;SDS011;69515;42.072;21.504;2024-02-04T02:44:25;7.68;;;4.05;;
80193;SDS011;69515;42.072;21.504;2024-02-04T02:46:54;5.95;;;3.40;;
80193;SDS011;69515;42.072;21.504;2024-02-04T02:49:20;9.80;;;4.20;;
80193;SDS011;69515;42.072;21.504;2024-02-04T02:51:46;7.95;;;4.35;;
80193;SDS011;69515;42.072;21.504;2024-02-04T02:54:12;5.43;;;3.25;;
80193;SDS011;69515;42.072;21.504;2024-02-04T02:56:39;6.13;;;3.53;;
80193;SDS011;69515;42.072;21.504;2024-02-04T02:59:05;9.75;;;3.95;;
80193;SDS011;69515;42.072;21.504;2024-02-04T03:01:31;8.32;;;3.72;;
80193;SDS011;69515;42.072;21.504;2024-02-04T03:03:57;9.05;;;4.57;;
80193;SDS011;69515;42.072;21.504;2024-02-04T03:08:49;7.22;;;3.42;;
80193;SDS011;69515;42.072;21.504;2024-02-04T03:11:16;6.72;;;3.65;;
80193;SDS011;69515;42.072;21.504;2024-02-04T03:13:42;6.28;;;3.17;;
80193;SDS011;69515;42.072;21.504;2024-02-04T03:16:11;6.65;;;3.42;;
80193;SDS011;69515;42.072;21.504;2024-02-04T03:18:41;5.93;;;3.40;;
80193;SDS011;69515;42.072;21.504;2024-02-04T03:21:14;9.18;;;3.80;;
80193;SDS011;69515;42.072;21.504;2024-02-04T03:23:41;7.38;;;3.55;;
80193;SDS011;69515;42.072;21.504;2024-02-04T03:26:07;7.60;;;3.67;;
80193;SDS011;69515;42.072;21.504;2024-02-04T03:28:34;5.07;;;2.90;;
80193;SDS011;69515;42.072;21.504;2024-02-04T03:31:00;8.80;;;4.35;;
80193;SDS011;69515;42.072;21.504;2024-02-04T03:33:26;6.55;;;3.67;;
80193;SDS011;69515;42.072;21.504;2024-02-04T03:35:52;7.32;;;3.45;;
80193;SDS011;69515;42.072;21.504;2024-02-04T03:38:19;6.18;;;3.67;;
80193;SDS011;69515;42.072;21.504;2024-02-04T03:40:45;7.18;;;3.97;;
80193;SDS011;69515;42.072;21.504;2024-02-04T03:45:37;8.60;;;3.72;;
80193;SDS011;69515;42.072;21.504;2024-02-04T03:48:03;7.60;;;3.65;;
80193;SDS011;69515;42.072;21.504;2024-02-04T03:50:30;8.32;;;3.60;;
80193;SDS011;69515;42.072;21.504;2024-02-04T03:52:56;9.90;;;4.20;;
80193;SDS011;69515;42.072;21.504;2024-02-04T03:55:22;8.13;;;3.72;;
80193;SDS011;69515;42.072;21.504;2024-02-04T04:00:15;6.90;;;3.42;;
80193;SDS011;69515;42.072;21.504;2024-02-04T04:02:41;7.43;;;3.33;;
80193;SDS011;69515;42.072;21.504;2024-02-04T04:05:11;8.32;;;3.80;;
80193;SDS011;69515;42.072;21.504;2024-02-04T04:07:40;7.05;;;3.47;;
80193;SDS011;69515;42.072;21.504;2024-02-04T04:10:06;6.88;;;3.45;;
80193;SDS011;69515;42.072;21.504;2024-02-04T04:14:59;8.02;;;3.97;;
80193;SDS011;69515;42.072;21.504;2024-02-04T04:17:25;6.78;;;3.50;;
80193;SDS011;69515;42.072;21.504;2024-02-04T04:19:51;9.20;;;4.18;;
80193;SDS011;69515;42.072;21.504;2024-02-04T04:22:17;7.30;;;3.85;;
80193;SDS011;69515;42.072;21.504;2024-02-04T04:24:43;7.90;;;4.10;;
80193;SDS011;69515;42.072;21.504;2024-02-04T04:27:10;10.95;;;4.95;;
80193;SDS011;69515;42.072;21.504;2024-02-04T04:29:36;7.93;;;4.20;;
80193;SDS011;69515;42.072;21.504;2024-02-04T04:32:02;12.80;;;5.90;;
80193;SDS011;69515;42.072;21.504;2024-02-04T04:34:28;11.85;;;6.20;;
80193;SDS011;69515;42.072;21.504;2024-02-04T04:36:54;11.57;;;5.68;;
80193;SDS011;69515;42.072;21.504;2024-02-04T04:39:21;12.18;;;6.53;;
80193;SDS011;69515;42.072;21.504;2024-02-04T04:41:47;12.15;;;5.60;;
80193;SDS011;69515;42.072;21.504;2024-02-04T04:46:39;8.57;;;4.45;;
80193;SDS011;69515;42.072;21.504;2024-02-04T04:49:06;10.23;;;5.47;;
80193;SDS011;69515;42.072;21.504;2024-02-04T04:53:58;7.47;;;3.90;;
80193;SDS011;69515;42.072;21.504;2024-02-04T04:58:50;9.88;;;3.90;;
80193;SDS011;69515;42.072;21.504;2024-02-04T05:01:17;8.35;;;4.10;;
80193;SDS011;69515;42.072;21.504;2024-02-04T05:03:43;9.25;;;4.53;;
80193;SDS011;69515;42.072;21.504;2024-02-04T05:06:10;6.55;;;3.42;;
80193;SDS011;69515;42.072;21.504;2024-02-04T05:08:36;7.88;;;4.30;;
80193;SDS011;69515;42.072;21.504;2024-02-04T05:11:03;8.02;;;3.72;;
80193;SDS011;69515;42.072;21.504;2024-02-04T05:15:55;10.48;;;4.32;;
80193;SDS011;69515;42.072;21.504;2024-02-04T05:18:21;11.63;;;5.07;;
80193;SDS011;69515;42.072;21.504;2024-02-04T05:20:51;9.00;;;4.78;;
80193;SDS011;69515;42.072;21.504;2024-02-04T05:23:17;10.48;;;4.30;;
80193;SDS011;69515;42.072;21.504;2024-02-04T05:28:09;9.05;;;4.30;;
80193;SDS011;69515;42.072;21.504;2024-02-04T05:30:36;8.60;;;4.38;;
80193;SDS011;69515;42.072;21.504;2024-02-04T05:35:28;9.95;;;5.03;;
80193;SDS011;69515;42.072;21.504;2024-02-04T05:37:54;8.63;;;4.20;;
80193;SDS011;69515;42.072;21.504;2024-02-04T05:40:20;8.23;;;4.22;;
80193;SDS011;69515;42.072;21.504;2024-02-04T05:42:46;10.10;;;4.72;;
80193;SDS011;69515;42.072;21.504;2024-02-04T05:45:13;11.85;;;4.78;;
80193;SDS011;69515;42.072;21.504;2024-02-04T05:50:05;12.43;;;6.38;;
80193;SDS011;69515;42.072;21.504;2024-02-04T05:52:31;12.93;;;7.60;;
80193;SDS011;69515;42.072;21.504;2024-02-04T05:54:58;9.15;;;5.05;;
80193;SDS011;69515;42.072;21.504;2024-02-04T05:57:24;11.60;;;7.97;;
80193;SDS011;69515;42.072;21.504;2024-02-04T05:59:50;12.75;;;7.40;;
80193;SDS011;69515;42.072;21.504;2024-02-04T06:02:18;9.25;;;5.00;;
80193;SDS011;69515;42.072;21.504;2024-02-04T06:07:11;12.00;;;6.32;;
80193;SDS011;69515;42.072;21.504;2024-02-04T06:09:37;9.50;;;4.78;;
80193;SDS011;69515;42.072;21.504;2024-02-04T06:12:03;8.80;;;4.07;;
80193;SDS011;69515;42.072;21.504;2024-02-04T06:14:32;9.93;;;5.75;;
80193;SDS011;69515;42.072;21.504;2024-02-04T06:16:59;15.20;;;8.18;;
80193;SDS011;69515;42.072;21.504;2024-02-04T06:19:26;10.75;;;6.22;;
80193;SDS011;69515;42.072;21.504;2024-02-04T06:21:52;9.15;;;4.40;;
80193;SDS011;69515;42.072;21.504;2024-02-04T06:24:18;11.25;;;6.38;;
80193;SDS011;69515;42.072;21.504;2024-02-04T06:26:45;9.60;;;5.65;;
80193;SDS011;69515;42.072;21.504;2024-02-04T06:31:37;11.45;;;6.25;;
80193;SDS011;69515;42.072;21.504;2024-02-04T06:34:04;9.77;;;5.43;;
80193;SDS011;69515;42.072;21.504;2024-02-04T06:36:30;9.65;;;4.45;;
80193;SDS011;69515;42.072;21.504;2024-02-04T06:38:56;9.75;;;5.03;;
80193;SDS011;69515;42.072;21.504;2024-02-04T06:43:48;11.65;;;6.20;;
80193;SDS011;69515;42.072;21.504;2024-02-04T06:46:23;12.82;;;5.63;;
80193;SDS011;69515;42.072;21.504;2024-02-04T06:48:49;9.95;;;5.15;;
80193;SDS011;69515;42.072;21.504;2024-02-04T06:51:15;10.48;;;5.85;;
80193;SDS011;69515;42.072;21.504;2024-02-04T06:56:07;12.98;;;7.57;;
80193;SDS011;69515;42.072;21.504;2024-02-04T06:58:36;13.60;;;8.07;;
80193;SDS011;69515;42.072;21.504;2024-02-04T07:01:02;11.75;;;5.13;;
80193;SDS011;69515;42.072;21.504;2024-02-04T07:03:29;13.00;;;8.05;;
80193;SDS011;69515;42.072;21.504;2024-02-04T07:05:56;12.93;;;7.53;;
80193;SDS011;69515;42.072;21.504;2024-02-04T07:08:22;15.82;;;8.50;;
80193;SDS011;69515;42.072;21.504;2024-02-04T07:13:14;17.50;;;10.02;;
80193;SDS011;69515;42.072;21.504;2024-02-04T07:15:40;15.43;;;8.85;;
80193;SDS011;69515;42.072;21.504;2024-02-04T07:20:33;14.93;;;8.93;;
80193;SDS011;69515;42.072;21.504;2024-02-04T07:22:59;14.40;;;8.57;;
80193;SDS011;69515;42.072;21.504;2024-02-04T07:25:25;18.55;;;10.27;;
80193;SDS011;69515;42.072;21.504;2024-02-04T07:27:52;26.40;;;16.48;;
80193;SDS011;69515;42.072;21.504;2024-02-04T07:30:19;24.17;;;14.32;;
80193;SDS011;69515;42.072;21.504;2024-02-04T07:32:46;26.95;;;14.43;;
80193;SDS011;69515;42.072;21.504;2024-02-04T07:35:12;27.52;;;15.05;;
80193;SDS011;69515;42.072;21.504;2024-02-04T07:40:04;29.27;;;15.43;;
80193;SDS011;69515;42.072;21.504;2024-02-04T07:42:31;23.50;;;14.23;;
80193;SDS011;69515;42.072;21.504;2024-02-04T07:44:57;23.58;;;14.73;;
80193;SDS011;69515;42.072;21.504;2024-02-04T07:47:24;23.95;;;15.20;;
80193;SDS011;69515;42.072;21.504;2024-02-04T07:49:50;25.73;;;15.93;;
80193;SDS011;69515;42.072;21.504;2024-02-04T07:52:16;23.65;;;15.40;;
80193;SDS011;69515;42.072;21.504;2024-02-04T07:54:43;32.90;;;17.98;;
80193;SDS011;69515;42.072;21.504;2024-02-04T07:59:35;34.60;;;19.13;;
80193;SDS011;69515;42.072;21.504;2024-02-04T08:04:27;34.75;;;18.63;;
80193;SDS011;69515;42.072;21.504;2024-02-04T08:09:20;27.05;;;15.13;;
80193;SDS011;69515;42.072;21.504;2024-02-04T08:14:12;30.38;;;16.67;;
80193;SDS011;69515;42.072;21.504;2024-02-04T08:16:42;27.25;;;16.08;;
80193;SDS011;69515;42.072;21.504;2024-02-04T08:19:11;26.58;;;12.57;;
80193;SDS011;69515;42.072;21.504;2024-02-04T08:21:38;21.15;;;11.88;;
80193;SDS011;69515;42.072;21.504;2024-02-04T08:26:32;16.08;;;9.55;;
80193;SDS011;69515;42.072;21.504;2024-02-04T08:31:24;16.33;;;9.35;;
80193;SDS011;69515;42.072;21.504;2024-02-04T08:33:50;15.43;;;8.10;;
80193;SDS011;69515;42.072;21.504;2024-02-04T08:36:18;13.27;;;8.38;;
80193;SDS011;69515;42.072;21.504;2024-02-04T08:38:44;19.85;;;9.95;;
80193;SDS011;69515;42.072;21.504;2024-02-04T08:41:10;20.02;;;10.15;;
80193;SDS011;69515;42.072;21.504;2024-02-04T08:43:37;15.30;;;8.50;;
80193;SDS011;69515;42.072;21.504;2024-02-04T08:46:03;14.63;;;7.80;;
80193;SDS011;69515;42.072;21.504;2024-02-04T08:48:30;18.33;;;13.02;;
80193;SDS011;69515;42.072;21.504;2024-02-04T08:50:56;23.58;;;16.17;;
80193;SDS011;69515;42.072;21.504;2024-02-04T08:53:22;34.38;;;21.98;;
80193;SDS011;69515;42.072;21.504;2024-02-04T08:55:49;28.42;;;17.05;;
80193;SDS011;69515;42.072;21.504;2024-02-04T08:58:15;24.73;;;16.40;;
80193;SDS011;69515;42.072;21.504;2024-02-04T09:00:41;24.27;;;15.45;;
80193;SDS011;69515;42.072;21.504;2024-02-04T09:03:07;20.15;;;12.90;;
80193;SDS011;69515;42.072;21.504;2024-02-04T09:05:33;24.75;;;13.63;;
80193;SDS011;69515;42.072;21.504;2024-02-04T09:08:00;21.42;;;13.13;;
80193;SDS011;69515;42.072;21.504;2024-02-04T09:10:27;24.30;;;13.07;;
80193;SDS011;69515;42.072;21.504;2024-02-04T09:12:53;20.17;;;11.57;;
80193;SDS011;69515;42.072;21.504;2024-02-04T09:15:19;18.75;;;11.20;;
80193;SDS011;69515;42.072;21.504;2024-02-04T09:17:45;16.58;;;9.60;;
80193;SDS011;69515;42.072;21.504;2024-02-04T09:20:11;18.02;;;11.57;;
80193;SDS011;69515;42.072;21.504;2024-02-04T09:22:38;26.35;;;13.73;;
80193;SDS011;69515;42.072;21.504;2024-02-04T09:25:05;27.85;;;17.58;;
80193;SDS011;69515;42.072;21.504;2024-02-04T09:27:31;24.30;;;16.50;;
80193;SDS011;69515;42.072;21.504;2024-02-04T09:29:57;28.35;;;19.27;;
80193;SDS011;69515;42.072;21.504;2024-02-04T09:32:23;29.58;;;18.88;;
80193;SDS011;69515;42.072;21.504;2024-02-04T09:34:50;33.78;;;20.33;;
80193;SDS011;69515;42.072;21.504;2024-02-04T09:37:16;36.72;;;22.40;;
80193;SDS011;69515;42.072;21.504;2024-02-04T09:39:42;37.03;;;24.67;;
80193;SDS011;69515;42.072;21.504;2024-02-04T09:42:08;32.78;;;22.77;;
80193;SDS011;69515;42.072;21.504;2024-02-04T09:44:36;34.45;;;22.83;;
80193;SDS011;69515;42.072;21.504;2024-02-04T09:47:03;36.53;;;23.17;;
80193;SDS011;69515;42.072;21.504;2024-02-04T09:49:29;35.47;;;23.08;;
80193;SDS011;69515;42.072;21.504;2024-02-04T09:51:57;37.83;;;22.80;;
80193;SDS011;69515;42.072;21.504;2024-02-04T09:54:25;36.13;;;22.52;;
80193;SDS011;69515;42.072;21.504;2024-02-04T09:56:56;25.30;;;18.80;;
80193;SDS011;69515;42.072;21.504;2024-02-04T09:59:23;26.38;;;17.98;;
80193;SDS011;69515;42.072;21.504;2024-02-04T10:01:50;28.92;;;19.17;;
80193;SDS011;69515;42.072;21.504;2024-02-04T10:04:17;26.73;;;18.30;;
80193;SDS011;69515;42.072;21.504;2024-02-04T10:06:43;23.20;;;14.75;;
80193;SDS011;69515;42.072;21.504;2024-02-04T10:09:09;24.70;;;15.02;;
80193;SDS011;69515;42.072;21.504;2024-02-04T10:11:35;21.35;;;12.38;;
80193;SDS011;69515;42.072;21.504;2024-02-04T10:14:02;18.05;;;9.88;;
80193;SDS011;69515;42.072;21.504;2024-02-04T10:16:31;16.10;;;9.05;;
80193;SDS011;69515;42.072;21.504;2024-02-04T10:25:10;12.35;;;7.38;;
80193;SDS011;69515;42.072;21.504;2024-02-04T10:37:07;11.40;;;5.03;;
80193;SDS011;69515;42.072;21.504;2024-02-04T10:39:33;11.80;;;5.32;;
80193;SDS011;69515;42.072;21.504;2024-02-04T10:42:01;11.63;;;5.55;;
80193;SDS011;69515;42.072;21.504;2024-02-04T10:44:31;11.77;;;5.78;;
80193;SDS011;69515;42.072;21.504;2024-02-04T10:47:03;9.70;;;4.60;;
80193;SDS011;69515;42.072;21.504;2024-02-04T10:49:31;9.73;;;4.78;;
80193;SDS011;69515;42.072;21.504;2024-02-04T10:51:59;10.75;;;4.80;;
80193;SDS011;69515;42.072;21.504;2024-02-04T10:54:28;8.80;;;4.72;;
80193;SDS011;69515;42.072;21.504;2024-02-04T10:56:57;8.85;;;4.65;;
80193;SDS011;69515;42.072;21.504;2024-02-04T10:59:26;9.90;;;5.63;;
80193;SDS011;69515;42.072;21.504;2024-02-04T11:01:55;9.10;;;5.70;;
80193;SDS011;69515;42.072;21.504;2024-02-04T11:04:21;10.25;;;5.55;;
80193;SDS011;69515;42.072;21.504;2024-02-04T11:06:49;11.90;;;5.05;;
80193;SDS011;69515;42.072;21.504;2024-02-04T11:09:16;10.73;;;4.95;;
80193;SDS011;69515;42.072;21.504;2024-02-04T11:11:43;8.70;;;4.65;;
80193;SDS011;69515;42.072;21.504;2024-02-04T11:14:14;9.00;;;4.53;;
80193;SDS011;69515;42.072;21.504;2024-02-04T11:19:16;9.20;;;4.78;;
80193;SDS011;69515;42.072;21.504;2024-02-04T11:21:58;10.93;;;5.50;;
80193;SDS011;69515;42.072;21.504;2024-02-04T11:27:29;10.25;;;4.75;;
80193;SDS011;69515;42.072;21.504;2024-02-04T11:29:56;12.38;;;4.60;;
80193;SDS011;69515;42.072;21.504;2024-02-04T11:32:23;8.73;;;4.95;;
80193;SDS011;69515;42.072;21.504;2024-02-04T11:34:51;8.07;;;5.05;;
80193;SDS011;69515;42.072;21.504;2024-02-04T11:37:19;10.38;;;5.82;;
80193;SDS011;69515;42.072;21.504;2024-02-04T11:39:52;11.48;;;6.28;;
80193;SDS011;69515;42.072;21.504;2024-02-04T11:42:19;11.35;;;5.88;;
80193;SDS011;69515;42.072;21.504;2024-02-04T11:44:46;13.98;;;7.45;;
80193;SDS011;69515;42.072;21.504;2024-02-04T11:47:22;18.27;;;9.35;;
80193;SDS011;69515;42.072;21.504;2024-02-04T11:49:58;27.80;;;17.17;;
80193;SDS011;69515;42.072;21.504;2024-02-04T11:52:27;24.50;;;12.93;;
80193;SDS011;69515;42.072;21.504;2024-02-04T11:54:54;20.90;;;10.30;;
80193;SDS011;69515;42.072;21.504;2024-02-04T11:57:20;19.08;;;10.77;;
80193;SDS011;69515;42.072;21.504;2024-02-04T11:59:47;20.23;;;10.00;;
80193;SDS011;69515;42.072;21.504;2024-02-04T12:02:15;16.10;;;9.57;;
80193;SDS011;69515;42.072;21.504;2024-02-04T12:04:45;18.52;;;10.43;;
80193;SDS011;69515;42.072;21.504;2024-02-04T12:07:15;15.93;;;10.00;;
80193;SDS011;69515;42.072;21.504;2024-02-04T12:09:43;24.15;;;10.45;;
80193;SDS011;69515;42.072;21.504;2024-02-04T12:12:10;17.52;;;10.55;;
80193;SDS011;69515;42.072;21.504;2024-02-04T12:14:36;16.95;;;10.23;;
80193;SDS011;69515;42.072;21.504;2024-02-04T12:17:10;18.83;;;10.98;;
80193;SDS011;69515;42.072;21.504;2024-02-04T12:19:39;23.10;;;12.15;;
80193;SDS011;69515;42.072;21.504;2024-02-04T12:22:06;32.80;;;16.13;;
80193;SDS011;69515;42.072;21.504;2024-02-04T12:24:35;25.50;;;15.57;;
80193;SDS011;69515;42.072;21.504;2024-02-04T12:27:02;25.60;;;16.33;;
80193;SDS011;69515;42.072;21.504;2024-02-04T12:29:28;24.27;;;15.82;;
80193;SDS011;69515;42.072;21.504;2024-02-04T12:32:04;24.55;;;15.23;;
80193;SDS011;69515;42.072;21.504;2024-02-04T12:34:30;25.55;;;15.18;;
80193;SDS011;69515;42.072;21.504;2024-02-04T12:36:59;23.83;;;15.00;;
80193;SDS011;69515;42.072;21.504;2024-02-04T12:39:26;24.67;;;15.05;;
80193;SDS011;69515;42.072;21.504;2024-02-04T12:41:53;23.52;;;14.48;;
80193;SDS011;69515;42.072;21.504;2024-02-04T12:44:19;24.52;;;15.18;;
80193;SDS011;69515;42.072;21.504;2024-02-04T12:46:45;26.92;;;14.88;;
80193;SDS011;69515;42.072;21.504;2024-02-04T12:49:17;25.52;;;15.38;;
80193;SDS011;69515;42.072;21.504;2024-02-04T12:51:45;27.92;;;15.32;;
80193;SDS011;69515;42.072;21.504;2024-02-04T12:54:11;25.63;;;16.45;;
80193;SDS011;69515;42.072;21.504;2024-02-04T12:56:43;23.77;;;15.52;;
80193;SDS011;69515;42.072;21.504;2024-02-04T12:59:09;28.90;;;17.45;;
80193;SDS011;69515;42.072;21.504;2024-02-04T13:01:36;28.27;;;17.77;;
80193;SDS011;69515;42.072;21.504;2024-02-04T13:04:03;29.33;;;18.50;;
80193;SDS011;69515;42.072;21.504;2024-02-04T13:06:30;26.65;;;18.63;;
80193;SDS011;69515;42.072;21.504;2024-02-04T13:08:57;28.88;;;17.75;;
80193;SDS011;69515;42.072;21.504;2024-02-04T13:11:24;27.38;;;16.85;;
80193;SDS011;69515;42.072;21.504;2024-02-04T13:13:50;24.67;;;16.83;;
80193;SDS011;69515;42.072;21.504;2024-02-04T13:16:17;23.30;;;16.17;;
80193;SDS011;69515;42.072;21.504;2024-02-04T13:18:51;24.90;;;16.00;;
80193;SDS011;69515;42.072;21.504;2024-02-04T13:21:17;29.95;;;17.55;;
80193;SDS011;69515;42.072;21.504;2024-02-04T13:23:45;26.60;;;16.98;;
80193;SDS011;69515;42.072;21.504;2024-02-04T13:26:11;25.17;;;16.50;;
80193;SDS011;69515;42.072;21.504;2024-02-04T13:28:38;26.23;;;17.42;;
80193;SDS011;69515;42.072;21.504;2024-02-04T13:31:04;30.00;;;17.02;;
80193;SDS011;69515;42.072;21.504;2024-02-04T13:33:30;22.80;;;14.73;;
80193;SDS011;69515;42.072;21.504;2024-02-04T13:35:57;28.75;;;16.50;;
80193;SDS011;69515;42.072;21.504;2024-02-04T13:38:23;21.65;;;13.38;;
80193;SDS011;69515;42.072;21.504;2024-02-04T13:40:49;23.88;;;14.93;;
80193;SDS011;69515;42.072;21.504;2024-02-04T13:43:16;23.50;;;15.45;;
80193;SDS011;69515;42.072;21.504;2024-02-04T13:45:42;29.85;;;15.65;;
80193;SDS011;69515;42.072;21.504;2024-02-04T13:48:08;23.85;;;13.93;;
80193;SDS011;69515;42.072;21.504;2024-02-04T13:50:34;25.55;;;16.98;;
80193;SDS011;69515;42.072;21.504;2024-02-04T13:53:02;23.17;;;14.48;;
80193;SDS011;69515;42.072;21.504;2024-02-04T13:55:28;22.55;;;13.32;;
80193;SDS011;69515;42.072;21.504;2024-02-04T13:57:55;22.70;;;12.50;;
80193;SDS011;69515;42.072;21.504;2024-02-04T14:00:21;26.80;;;15.98;;
80193;SDS011;69515;42.072;21.504;2024-02-04T14:02:47;24.77;;;15.52;;
80193;SDS011;69515;42.072;21.504;2024-02-04T14:05:13;23.15;;;13.98;;
80193;SDS011;69515;42.072;21.504;2024-02-04T14:07:39;19.15;;;11.95;;
80193;SDS011;69515;42.072;21.504;2024-02-04T14:10:06;18.00;;;11.13;;
80193;SDS011;69515;42.072;21.504;2024-02-04T14:12:33;17.50;;;10.65;;
80193;SDS011;69515;42.072;21.504;2024-02-04T14:15:00;18.27;;;10.48;;
80193;SDS011;69515;42.072;21.504;2024-02-04T14:17:26;21.42;;;11.85;;
80193;SDS011;69515;42.072;21.504;2024-02-04T14:19:52;23.33;;;10.23;;
80193;SDS011;69515;42.072;21.504;2024-02-04T14:22:18;14.57;;;8.00;;
80193;SDS011;69515;42.072;21.504;2024-02-04T14:24:47;14.85;;;9.07;;
80193;SDS011;69515;42.072;21.504;2024-02-04T14:27:13;21.50;;;12.98;;
80193;SDS011;69515;42.072;21.504;2024-02-04T14:29:39;19.30;;;12.07;;
80193;SDS011;69515;42.072;21.504;2024-02-04T14:32:05;18.40;;;12.60;;
80193;SDS011;69515;42.072;21.504;2024-02-04T14:34:33;21.52;;;12.57;;
80193;SDS011;69515;42.072;21.504;2024-02-04T14:37:00;21.95;;;13.30;;
80193;SDS011;69515;42.072;21.504;2024-02-04T14:39:26;23.88;;;14.23;;
80193;SDS011;69515;42.072;21.504;2024-02-04T14:41:52;22.73;;;13.32;;
80193;SDS011;69515;42.072;21.504;2024-02-04T14:44:19;20.48;;;12.35;;
80193;SDS011;69515;42.072;21.504;2024-02-04T14:46:45;18.13;;;11.82;;
80193;SDS011;69515;42.072;21.504;2024-02-04T14:49:13;20.02;;;9.80;;
80193;SDS011;69515;42.072;21.504;2024-02-04T14:51:39;17.88;;;10.20;;
80193;SDS011;69515;42.072;21.504;2024-02-04T14:54:06;16.15;;;9.55;;
80193;SDS011;69515;42.072;21.504;2024-02-04T14:56:40;14.30;;;8.70;;
80193;SDS011;69515;42.072;21.504;2024-02-04T14:59:08;14.55;;;8.57;;
80193;SDS011;69515;42.072;21.504;2024-02-04T15:01:35;14.35;;;9.02;;
80193;SDS011;69515;42.072;21.504;2024-02-04T15:04:01;12.95;;;7.60;;
80193;SDS011;69515;42.072;21.504;2024-02-04T15:06:28;10.68;;;5.97;;
80193;SDS011;69515;42.072;21.504;2024-02-04T15:08:57;11.93;;;7.57;;
80193;SDS011;69515;42.072;21.504;2024-02-04T15:11:27;16.67;;;9.32;;
80193;SDS011;69515;42.072;21.504;2024-02-04T15:13:55;15.25;;;9.73;;
80193;SDS011;69515;42.072;21.504;2024-02-04T15:16:22;14.40;;;9.05;;
80193;SDS011;69515;42.072;21.504;2024-02-04T15:18:48;13.95;;;8.52;;
80193;SDS011;69515;42.072;21.504;2024-02-04T15:21:15;17.42;;;9.25;;
80193;SDS011;69515;42.072;21.504;2024-02-04T15:23:41;13.38;;;7.88;;
80193;SDS011;69515;42.072;21.504;2024-02-04T15:26:10;21.40;;;12.02;;
80193;SDS011;69515;42.072;21.504;2024-02-04T15:28:38;19.58;;;8.25;;
80193;SDS011;69515;42.072;21.504;2024-02-04T15:31:04;15.75;;;8.77;;
80193;SDS011;69515;42.072;21.504;2024-02-04T15:33:31;15.27;;;8.13;;
80193;SDS011;69515;42.072;21.504;2024-02-04T15:35:57;14.52;;;8.90;;
80193;SDS011;69515;42.072;21.504;2024-02-04T15:38:23;21.33;;;13.80;;
80193;SDS011;69515;42.072;21.504;2024-02-04T15:40:49;13.40;;;7.55;;
80193;SDS011;69515;42.072;21.504;2024-02-04T15:43:16;12.23;;;6.35;;
80193;SDS011;69515;42.072;21.504;2024-02-04T15:45:42;26.48;;;13.30;;
80193;SDS011;69515;42.072;21.504;2024-02-04T15:48:08;60.10;;;27.13;;
80193;SDS011;69515;42.072;21.504;2024-02-04T15:50:35;24.58;;;12.13;;
80193;SDS011;69515;42.072;21.504;2024-02-04T15:53:01;16.27;;;7.97;;
80193;SDS011;69515;42.072;21.504;2024-02-04T15:55:27;14.70;;;7.60;;
80193;SDS011;69515;42.072;21.504;2024-02-04T15:57:54;12.30;;;7.00;;